createdAt,value
2018-02-18T00:00:11.573Z,6.44
2018-02-18T00:00:52.096Z,6.4
2018-02-18T00:01:32.632Z,6.34
2018-02-18T00:02:13.161Z,6.4
2018-02-18T00:02:53.706Z,6.38
2018-02-18T00:03:34.280Z,6.38
2018-02-18T00:04:14.847Z,6.41
2018-02-18T00:04:55.440Z,6.43
2018-02-18T00:05:35.987Z,6.44
2018-02-18T00:06:16.532Z,6.4
2018-02-18T00:06:57.130Z,6.4
2018-02-18T00:07:37.700Z,6.33
2018-02-18T00:08:18.263Z,6.4
2018-02-18T00:08:58.816Z,6.37
2018-02-18T00:09:39.390Z,6.38
2018-02-18T00:10:19.951Z,6.38
2018-02-18T00:11:00.510Z,6.43
2018-02-18T00:11:41.069Z,6.41
2018-02-18T00:12:21.619Z,6.38
2018-02-18T00:13:02.151Z,6.48
2018-02-18T00:13:42.700Z,6.44
2018-02-18T00:14:23.253Z,6.49
2018-02-18T00:15:03.823Z,6.52
2018-02-18T00:15:44.385Z,6.43
2018-02-18T00:16:24.941Z,6.54
2018-02-18T00:17:05.497Z,6.49
2018-02-18T00:17:46.065Z,6.38
2018-02-18T00:18:26.639Z,6.49
2018-02-18T00:19:07.204Z,6.44
2018-02-18T00:19:47.805Z,6.43
2018-02-18T00:20:28.332Z,6.43
2018-02-18T00:21:08.905Z,6.48
2018-02-18T00:21:49.453Z,6.38
2018-02-18T00:22:29.992Z,6.4
2018-02-18T00:23:10.537Z,6.54
2018-02-18T00:23:51.099Z,6.43
2018-02-18T00:24:31.660Z,6.44
2018-02-18T00:25:12.219Z,6.44
2018-02-18T00:25:52.807Z,6.38
2018-02-18T00:26:33.359Z,6.37
2018-02-18T00:27:13.903Z,6.44
2018-02-18T00:27:54.474Z,6.43
2018-02-18T00:28:35.028Z,6.48
2018-02-18T00:29:15.594Z,6.34
2018-02-18T00:29:56.168Z,6.33
2018-02-18T00:30:36.725Z,6.31
2018-02-18T00:31:17.282Z,6.31
2018-02-18T00:31:57.845Z,6.46
2018-02-18T00:32:38.420Z,6.36
2018-02-18T00:33:18.982Z,6.37
2018-02-18T00:33:59.552Z,6.3
2018-02-18T00:34:40.129Z,6.36
2018-02-18T00:35:20.691Z,6.37
2018-02-18T00:36:01.252Z,6.36
2018-02-18T00:36:41.804Z,6.38
2018-02-18T00:37:22.363Z,6.28
2018-02-18T00:38:02.933Z,6.36
2018-02-18T00:38:43.510Z,6.31
2018-02-18T00:39:24.071Z,6.37
2018-02-18T00:40:04.637Z,6.3
2018-02-18T00:40:45.204Z,6.27
2018-02-18T00:41:26.431Z,6.44
2018-02-18T00:42:06.304Z,6.28
2018-02-18T00:42:46.866Z,6.22
2018-02-18T00:43:27.428Z,6.28
2018-02-18T00:44:07.992Z,6.28
2018-02-18T00:44:48.543Z,6.38
2018-02-18T00:45:29.107Z,6.3
2018-02-18T00:46:09.674Z,6.4
2018-02-18T00:46:50.247Z,6.3
2018-02-18T00:47:30.796Z,6.25
2018-02-18T00:48:11.357Z,6.37
2018-02-18T00:48:51.911Z,6.36
2018-02-18T00:49:32.465Z,6.36
2018-02-18T00:50:13.020Z,6.31
2018-02-18T00:50:53.589Z,6.3
2018-02-18T00:51:34.147Z,6.34
2018-02-18T00:52:14.719Z,6.38
2018-02-18T00:52:55.261Z,6.33
2018-02-18T00:53:35.808Z,6.31
2018-02-18T00:54:16.362Z,6.37
2018-02-18T00:54:56.918Z,6.4
2018-02-18T00:55:37.481Z,6.41
2018-02-18T00:56:18.050Z,6.46
2018-02-18T00:56:58.613Z,6.38
2018-02-18T00:57:39.163Z,6.33
2018-02-18T00:58:19.740Z,6.3
2018-02-18T00:59:00.266Z,6.34
2018-02-18T00:59:40.815Z,6.43
2018-02-18T01:00:21.375Z,6.37
2018-02-18T01:01:01.976Z,6.34
2018-02-18T01:01:42.529Z,6.3
2018-02-18T01:02:23.081Z,6.28
2018-02-18T01:03:03.631Z,6.34
2018-02-18T01:03:44.931Z,6.34
2018-02-18T01:04:25.504Z,6.41
2018-02-18T01:05:06.078Z,6.44
2018-02-18T01:05:46.667Z,6.33
2018-02-18T01:06:27.236Z,6.34
2018-02-18T01:07:07.791Z,6.31
2018-02-18T01:07:48.349Z,6.37
2018-02-18T01:08:29.561Z,6.3
2018-02-18T01:09:10.102Z,6.36
2018-02-18T01:09:50.796Z,6.36
2018-02-18T01:10:31.477Z,6.25
2018-02-18T01:11:12.938Z,6.33
2018-02-18T01:11:53.930Z,6.33
2018-02-18T01:12:33.705Z,6.28
2018-02-18T01:13:14.264Z,6.37
2018-02-18T01:13:54.842Z,6.31
2018-02-18T01:14:35.427Z,6.31
2018-02-18T01:15:15.985Z,6.22
2018-02-18T01:15:56.548Z,6.25
2018-02-18T01:16:37.126Z,6.27
2018-02-18T01:17:17.694Z,6.28
2018-02-18T01:17:58.262Z,6.34
2018-02-18T01:18:38.824Z,6.33
2018-02-18T01:19:19.382Z,6.33
2018-02-18T01:19:59.951Z,6.31
2018-02-18T01:20:40.538Z,6.25
2018-02-18T01:21:21.120Z,6.28
2018-02-18T01:22:03.439Z,6.33
2018-02-18T01:22:44.432Z,6.34
2018-02-18T01:23:25.350Z,6.36
2018-02-18T01:24:05.911Z,6.36
2018-02-18T01:24:46.479Z,6.31
2018-02-18T01:25:27.032Z,6.33
2018-02-18T01:26:08.440Z,6.22
2018-02-18T01:26:48.904Z,6.19
2018-02-18T01:27:30.397Z,6.27
2018-02-18T01:28:10.969Z,6.21
2018-02-18T01:28:51.712Z,6.28
2018-02-18T01:29:32.271Z,6.27
2018-02-18T01:30:12.829Z,6.19
2018-02-18T01:30:53.391Z,6.18
2018-02-18T01:31:33.953Z,6.27
2018-02-18T01:32:14.488Z,6.22
2018-02-18T01:32:55.057Z,6.12
2018-02-18T01:33:35.629Z,6.3
2018-02-18T01:34:16.978Z,6.17
2018-02-18T01:34:57.572Z,6.15
2018-02-18T01:35:38.139Z,6.19
2018-02-18T01:36:18.713Z,6.08
2018-02-18T01:36:59.290Z,6.19
2018-02-18T01:37:39.833Z,6.17
2018-02-18T01:38:21.012Z,6.17
2018-02-18T01:39:01.595Z,6.09
2018-02-18T01:39:42.184Z,6.03
2018-02-18T01:40:22.709Z,6.08
2018-02-18T01:41:04.585Z,6.11
2018-02-18T01:41:45.137Z,6.12
2018-02-18T01:42:25.686Z,6.04
2018-02-18T01:43:06.235Z,6.09
2018-02-18T01:43:47.463Z,6.09
2018-02-18T01:44:28.053Z,6.01
2018-02-18T01:45:08.582Z,6.08
2018-02-18T01:45:49.126Z,6
2018-02-18T01:46:29.694Z,6.01
2018-02-18T01:47:10.231Z,6
2018-02-18T01:47:50.788Z,5.94
2018-02-18T01:48:31.347Z,5.93
2018-02-18T01:49:11.907Z,5.97
2018-02-18T01:49:52.464Z,6.03
2018-02-18T01:50:33.019Z,5.96
2018-02-18T01:51:13.576Z,5.96
2018-02-18T01:51:54.126Z,5.99
2018-02-18T01:52:34.646Z,5.93
2018-02-18T01:53:15.152Z,6
2018-02-18T01:53:55.707Z,5.96
2018-02-18T01:54:36.210Z,6.03
2018-02-18T01:55:16.772Z,6
2018-02-18T01:55:57.245Z,5.99
2018-02-18T01:56:37.808Z,6.03
2018-02-18T01:57:18.332Z,5.99
2018-02-18T01:57:59.440Z,5.93
2018-02-18T01:58:40.046Z,5.93
2018-02-18T01:59:20.594Z,5.93
2018-02-18T02:00:02.128Z,5.97
2018-02-18T02:00:42.685Z,5.89
2018-02-18T02:01:23.221Z,5.79
2018-02-18T02:02:03.791Z,5.97
2018-02-18T02:02:44.930Z,5.86
2018-02-18T02:03:25.491Z,5.96
2018-02-18T02:04:06.049Z,5.94
2018-02-18T02:04:46.586Z,5.89
2018-02-18T02:05:27.139Z,5.86
2018-02-18T02:06:07.686Z,5.97
2018-02-18T02:06:48.205Z,5.9
2018-02-18T02:07:30.945Z,5.99
2018-02-18T02:08:11.030Z,6
2018-02-18T02:08:51.622Z,5.78
2018-02-18T02:09:32.940Z,5.85
2018-02-18T02:10:12.673Z,5.82
2018-02-18T02:10:53.239Z,5.99
2018-02-18T02:11:33.752Z,5.85
2018-02-18T02:12:14.289Z,5.86
2018-02-18T02:12:54.789Z,5.96
2018-02-18T02:13:35.344Z,5.99
2018-02-18T02:14:15.890Z,5.97
2018-02-18T02:14:56.427Z,5.96
2018-02-18T02:15:36.971Z,5.97
2018-02-18T02:16:18.124Z,5.94
2018-02-18T02:16:58.642Z,5.82
2018-02-18T02:17:39.192Z,5.99
2018-02-18T02:18:19.708Z,5.96
2018-02-18T02:19:00.270Z,5.93
2018-02-18T02:19:40.823Z,5.96
2018-02-18T02:20:21.337Z,5.99
2018-02-18T02:21:01.908Z,5.93
2018-02-18T02:21:42.388Z,5.9
2018-02-18T02:22:22.969Z,6
2018-02-18T02:23:03.499Z,5.94
2018-02-18T02:23:44.031Z,5.96
2018-02-18T02:24:25.450Z,5.97
2018-02-18T02:25:05.710Z,6.03
2018-02-18T02:25:46.952Z,5.91
2018-02-18T02:26:26.811Z,5.83
2018-02-18T02:27:08.446Z,5.86
2018-02-18T02:27:48.494Z,5.91
2018-02-18T02:28:29.070Z,5.9
2018-02-18T02:29:09.561Z,5.91
2018-02-18T02:29:50.183Z,5.82
2018-02-18T02:30:30.638Z,5.85
2018-02-18T02:31:11.945Z,5.89
2018-02-18T02:31:51.690Z,5.85
2018-02-18T02:32:32.222Z,5.85
2018-02-18T02:33:12.797Z,5.82
2018-02-18T02:33:53.332Z,5.81
2018-02-18T02:34:33.910Z,5.85
2018-02-18T02:35:14.459Z,5.85
2018-02-18T02:35:54.988Z,5.81
2018-02-18T02:36:35.510Z,5.78
2018-02-18T02:37:16.029Z,5.81
2018-02-18T02:37:56.532Z,5.81
2018-02-18T02:38:37.086Z,5.81
2018-02-18T02:39:20.125Z,5.89
2018-02-18T02:40:00.667Z,5.93
2018-02-18T02:40:41.228Z,5.83
2018-02-18T02:41:21.785Z,5.83
2018-02-18T02:42:02.325Z,5.86
2018-02-18T02:42:42.824Z,5.9
2018-02-18T02:43:23.378Z,5.86
2018-02-18T02:44:04.446Z,5.83
2018-02-18T02:44:44.529Z,5.78
2018-02-18T02:45:25.108Z,5.9
2018-02-18T02:46:05.665Z,5.86
2018-02-18T02:46:46.227Z,5.82
2018-02-18T02:47:26.776Z,5.76
2018-02-18T02:48:07.332Z,5.86
2018-02-18T02:48:47.892Z,5.74
2018-02-18T02:49:28.438Z,5.85
2018-02-18T02:50:08.999Z,5.78
2018-02-18T02:50:49.573Z,5.71
2018-02-18T02:51:30.135Z,5.81
2018-02-18T02:52:10.726Z,5.81
2018-02-18T02:52:51.251Z,5.85
2018-02-18T02:53:31.800Z,5.81
2018-02-18T02:54:12.364Z,5.68
2018-02-18T02:54:52.928Z,5.78
2018-02-18T02:55:34.451Z,5.64
2018-02-18T02:56:14.568Z,5.79
2018-02-18T02:56:55.142Z,5.83
2018-02-18T02:57:35.709Z,5.81
2018-02-18T02:58:16.270Z,5.83
2018-02-18T02:58:56.837Z,5.71
2018-02-18T02:59:37.389Z,5.68
2018-02-18T03:00:17.945Z,5.68
2018-02-18T03:00:58.502Z,5.75
2018-02-18T03:01:39.058Z,5.72
2018-02-18T03:02:19.629Z,5.71
2018-02-18T03:03:00.200Z,5.67
2018-02-18T03:03:40.766Z,5.74
2018-02-18T03:04:21.329Z,5.81
2018-02-18T03:05:01.878Z,5.65
2018-02-18T03:05:42.437Z,5.65
2018-02-18T03:06:23.027Z,5.75
2018-02-18T03:07:04.429Z,5.78
2018-02-18T03:07:45.016Z,5.63
2018-02-18T03:08:25.576Z,5.65
2018-02-18T03:09:06.130Z,5.72
2018-02-18T03:09:46.694Z,5.67
2018-02-18T03:10:27.250Z,5.74
2018-02-18T03:11:07.805Z,5.74
2018-02-18T03:11:48.369Z,5.67
2018-02-18T03:12:28.916Z,5.67
2018-02-18T03:13:09.483Z,5.63
2018-02-18T03:13:50.041Z,5.68
2018-02-18T03:14:30.594Z,5.65
2018-02-18T03:15:11.175Z,5.76
2018-02-18T03:15:51.739Z,5.68
2018-02-18T03:16:32.297Z,5.75
2018-02-18T03:17:12.883Z,5.68
2018-02-18T03:17:53.431Z,5.72
2018-02-18T03:18:33.982Z,5.72
2018-02-18T03:19:14.518Z,5.74
2018-02-18T03:19:55.086Z,5.71
2018-02-18T03:20:35.658Z,5.76
2018-02-18T03:21:16.222Z,5.67
2018-02-18T03:21:56.789Z,5.67
2018-02-18T03:22:37.345Z,5.67
2018-02-18T03:23:17.930Z,5.74
2018-02-18T03:23:58.490Z,5.64
2018-02-18T03:24:39.041Z,5.68
2018-02-18T03:25:19.622Z,5.74
2018-02-18T03:26:00.189Z,5.76
2018-02-18T03:26:40.730Z,5.65
2018-02-18T03:27:21.284Z,5.67
2018-02-18T03:28:01.853Z,5.68
2018-02-18T03:28:42.406Z,5.72
2018-02-18T03:29:27.460Z,5.71
2018-02-18T03:30:07.445Z,5.71
2018-02-18T03:30:47.963Z,5.72
2018-02-18T03:31:29.349Z,5.65
2018-02-18T03:32:09.911Z,5.65
2018-02-18T03:32:50.458Z,5.57
2018-02-18T03:33:31.017Z,5.57
2018-02-18T03:34:11.585Z,5.57
2018-02-18T03:34:52.140Z,5.45
2018-02-18T03:35:32.709Z,5.49
2018-02-18T03:36:13.271Z,5.61
2018-02-18T03:36:53.835Z,5.56
2018-02-18T03:37:34.391Z,5.57
2018-02-18T03:38:15.459Z,5.54
2018-02-18T03:38:55.515Z,5.4
2018-02-18T03:39:36.068Z,5.36
2018-02-18T03:40:16.666Z,5.4
2018-02-18T03:40:57.221Z,5.45
2018-02-18T03:41:37.787Z,5.45
2018-02-18T03:42:18.354Z,5.48
2018-02-18T03:42:58.913Z,5.46
2018-02-18T03:43:39.480Z,5.56
2018-02-18T03:44:20.030Z,5.48
2018-02-18T03:45:00.593Z,5.49
2018-02-18T03:45:41.160Z,5.51
2018-02-18T03:46:21.717Z,5.56
2018-02-18T03:47:02.254Z,5.48
2018-02-18T03:47:42.803Z,5.54
2018-02-18T03:48:23.362Z,5.38
2018-02-18T03:49:03.921Z,5.42
2018-02-18T03:49:44.489Z,5.4
2018-02-18T03:50:25.041Z,5.43
2018-02-18T03:51:05.576Z,5.36
2018-02-18T03:51:46.141Z,5.36
2018-02-18T03:52:26.746Z,5.35
2018-02-18T03:53:07.316Z,5.38
2018-02-18T03:53:47.872Z,5.38
2018-02-18T03:54:28.416Z,5.39
2018-02-18T03:55:08.991Z,5.3
2018-02-18T03:55:49.557Z,5.38
2018-02-18T03:56:30.097Z,5.2
2018-02-18T03:57:10.648Z,5.39
2018-02-18T03:57:51.220Z,5.35
2018-02-18T03:58:31.771Z,5.25
2018-02-18T03:59:12.337Z,5.38
2018-02-18T03:59:52.890Z,5.22
2018-02-18T04:00:33.449Z,5.39
2018-02-18T04:01:13.999Z,5.33
2018-02-18T04:01:54.561Z,5.3
2018-02-18T04:02:35.712Z,5.36
2018-02-18T04:03:31.975Z,5.4
2018-02-18T04:04:11.606Z,5.33
2018-02-18T04:04:52.153Z,5.39
2018-02-18T04:05:32.713Z,5.4
2018-02-18T04:06:13.963Z,5.31
2018-02-18T04:06:53.798Z,5.24
2018-02-18T04:07:34.363Z,5.27
2018-02-18T04:08:14.929Z,5.35
2018-02-18T04:08:55.466Z,5.39
2018-02-18T04:09:36.040Z,5.35
2018-02-18T04:10:16.607Z,5.31
2018-02-18T04:10:57.145Z,5.4
2018-02-18T04:11:37.695Z,5.4
2018-02-18T04:12:18.249Z,5.4
2018-02-18T04:12:58.802Z,5.4
2018-02-18T04:13:39.352Z,5.39
2018-02-18T04:14:19.906Z,5.3
2018-02-18T04:15:00.452Z,5.35
2018-02-18T04:15:41.035Z,5.25
2018-02-18T04:16:21.603Z,5.38
2018-02-18T04:17:02.155Z,5.3
2018-02-18T04:17:42.740Z,5.36
2018-02-18T04:18:25.993Z,5.3
2018-02-18T04:19:07.479Z,5.39
2018-02-18T04:20:00.471Z,5.35
2018-02-18T04:20:39.242Z,5.27
2018-02-18T04:21:28.469Z,5.39
2018-02-18T04:22:08.170Z,5.27
2018-02-18T04:22:48.758Z,5.35
2018-02-18T04:23:29.301Z,5.28
2018-02-18T04:24:09.860Z,5.38
2018-02-18T04:24:50.434Z,5.38
2018-02-18T04:25:30.999Z,5.13
2018-02-18T04:26:11.556Z,5.04
2018-02-18T04:26:52.110Z,5.07
2018-02-18T04:27:32.682Z,5.17
2018-02-18T04:28:13.227Z,5.24
2018-02-18T04:28:53.786Z,5.27
2018-02-18T04:29:34.342Z,5.2
2018-02-18T04:30:14.881Z,5.25
2018-02-18T04:30:55.442Z,5.21
2018-02-18T04:31:35.999Z,5.07
2018-02-18T04:32:16.577Z,5.02
2018-02-18T04:32:57.127Z,5.17
2018-02-18T04:33:37.691Z,5.25
2018-02-18T04:34:18.231Z,5.1
2018-02-18T04:34:58.794Z,5.04
2018-02-18T04:35:39.373Z,5.07
2018-02-18T04:36:19.934Z,5.06
2018-02-18T04:37:00.526Z,5.22
2018-02-18T04:37:41.075Z,5.22
2018-02-18T04:38:21.633Z,5.04
2018-02-18T04:39:02.196Z,5.03
2018-02-18T04:39:42.752Z,5.07
2018-02-18T04:40:23.320Z,5.04
2018-02-18T04:41:03.884Z,5.07
2018-02-18T04:41:44.442Z,5.12
2018-02-18T04:42:25.002Z,5.21
2018-02-18T04:43:05.554Z,5.15
2018-02-18T04:43:46.110Z,5.06
2018-02-18T04:44:26.675Z,5.09
2018-02-18T04:45:07.241Z,5.09
2018-02-18T04:45:47.790Z,5.07
2018-02-18T04:46:28.376Z,5.09
2018-02-18T04:47:08.951Z,5.24
2018-02-18T04:47:50.473Z,5.15
2018-02-18T04:48:30.065Z,5.22
2018-02-18T04:49:10.608Z,5.07
2018-02-18T04:49:51.177Z,4.94
2018-02-18T04:50:38.972Z,4.86
2018-02-18T04:51:18.599Z,4.91
2018-02-18T04:52:00.734Z,5.03
2018-02-18T04:52:44.880Z,5.02
2018-02-18T04:53:25.423Z,5.1
2018-02-18T04:54:05.978Z,4.99
2018-02-18T04:54:46.531Z,4.92
2018-02-18T04:55:27.091Z,4.89
2018-02-18T04:56:07.628Z,4.67
2018-02-18T04:56:48.172Z,4.78
2018-02-18T04:57:28.736Z,4.89
2018-02-18T04:58:09.310Z,4.97
2018-02-18T04:58:49.879Z,5.06
2018-02-18T04:59:30.458Z,5.12
2018-02-18T05:00:11.022Z,5.06
2018-02-18T05:00:51.601Z,4.84
2018-02-18T05:01:32.155Z,4.6
2018-02-18T05:02:12.710Z,4.66
2018-02-18T05:02:53.261Z,4.75
2018-02-18T05:03:33.827Z,4.69
2018-02-18T05:04:14.367Z,4.66
2018-02-18T05:04:54.922Z,4.69
2018-02-18T05:05:35.482Z,4.55
2018-02-18T05:06:16.039Z,4.52
2018-02-18T05:06:56.595Z,4.6
2018-02-18T05:07:37.146Z,4.58
2018-02-18T05:08:20.144Z,4.62
2018-02-18T05:09:01.478Z,4.65
2018-02-18T05:09:44.057Z,4.7
2018-02-18T05:10:25.988Z,4.47
2018-02-18T05:11:06.478Z,4.51
2018-02-18T05:11:46.423Z,4.52
2018-02-18T05:12:27.551Z,4.66
2018-02-18T05:13:08.101Z,4.72
2018-02-18T05:13:48.656Z,4.75
2018-02-18T05:14:29.214Z,4.73
2018-02-18T05:15:09.779Z,4.88
2018-02-18T05:15:50.330Z,4.8
2018-02-18T05:16:30.912Z,4.78
2018-02-18T05:17:11.490Z,4.94
2018-02-18T05:17:52.047Z,4.97
2018-02-18T05:18:32.604Z,4.99
2018-02-18T05:19:13.172Z,5.04
2018-02-18T05:19:53.754Z,5.12
2018-02-18T05:20:34.316Z,5.18
2018-02-18T05:21:14.879Z,5.24
2018-02-18T05:21:55.451Z,5.22
2018-02-18T05:22:36.006Z,5.24
2018-02-18T05:23:16.568Z,5.33
2018-02-18T05:23:57.136Z,5.36
2018-02-18T05:24:37.698Z,5.24
2018-02-18T05:25:18.260Z,5.21
2018-02-18T05:25:58.825Z,5.09
2018-02-18T05:26:39.392Z,5.12
2018-02-18T05:27:19.945Z,5.03
2018-02-18T05:28:00.506Z,5.1
2018-02-18T05:28:41.068Z,5.1
2018-02-18T05:29:21.654Z,5.1
2018-02-18T05:30:02.221Z,5.25
2018-02-18T05:30:42.772Z,5.3
2018-02-18T05:31:23.332Z,5.15
2018-02-18T05:32:03.887Z,5.31
2018-02-18T05:32:44.464Z,5.21
2018-02-18T05:33:25.032Z,5.09
2018-02-18T05:34:05.577Z,4.94
2018-02-18T05:34:46.140Z,4.77
2018-02-18T05:35:26.697Z,4.51
2018-02-18T05:36:07.256Z,4.5
2018-02-18T05:36:47.811Z,4.52
2018-02-18T05:37:28.356Z,4.58
2018-02-18T05:38:08.915Z,4.7
2018-02-18T05:38:49.475Z,4.75
2018-02-18T05:39:30.033Z,4.77
2018-02-18T05:40:10.581Z,4.67
2018-02-18T05:40:51.155Z,4.55
2018-02-18T05:41:31.701Z,4.48
2018-02-18T05:42:12.288Z,4.59
2018-02-18T05:42:52.852Z,4.62
2018-02-18T05:43:33.410Z,4.62
2018-02-18T05:44:13.974Z,4.7
2018-02-18T05:44:54.538Z,4.75
2018-02-18T05:45:35.089Z,4.7
2018-02-18T05:46:15.642Z,4.77
2018-02-18T05:46:56.202Z,4.67
2018-02-18T05:47:36.766Z,4.54
2018-02-18T05:48:17.317Z,4.59
2018-02-18T05:48:57.900Z,4.67
2018-02-18T05:49:38.466Z,4.66
2018-02-18T05:50:19.025Z,4.72
2018-02-18T05:50:59.590Z,4.72
2018-02-18T05:51:40.151Z,4.72
2018-02-18T05:52:20.716Z,4.75
2018-02-18T05:53:01.265Z,4.85
2018-02-18T05:53:41.818Z,4.8
2018-02-18T05:54:22.355Z,4.75
2018-02-18T05:55:02.936Z,4.78
2018-02-18T05:55:43.481Z,4.78
2018-02-18T05:56:24.029Z,4.75
2018-02-18T05:57:04.597Z,4.8
2018-02-18T05:57:45.157Z,4.67
2018-02-18T05:58:25.712Z,4.75
2018-02-18T05:59:06.276Z,4.77
2018-02-18T05:59:46.834Z,4.84
2018-02-18T06:00:27.375Z,4.89
2018-02-18T06:01:08.679Z,4.94
2018-02-18T06:01:49.259Z,4.97
2018-02-18T06:02:29.825Z,5.07
2018-02-18T06:03:10.397Z,5.1
2018-02-18T06:03:50.940Z,5.13
2018-02-18T06:04:31.489Z,4.96
2018-02-18T06:05:12.042Z,5
2018-02-18T06:05:52.610Z,4.89
2018-02-18T06:06:33.179Z,4.96
2018-02-18T06:07:13.745Z,5.02
2018-02-18T06:07:54.307Z,5.06
2018-02-18T06:08:34.856Z,5
2018-02-18T06:09:15.419Z,4.88
2018-02-18T06:09:55.962Z,5
2018-02-18T06:10:36.527Z,4.78
2018-02-18T06:11:17.075Z,4.89
2018-02-18T06:11:57.633Z,4.86
2018-02-18T06:12:38.187Z,4.89
2018-02-18T06:13:18.759Z,4.99
2018-02-18T06:13:59.318Z,4.97
2018-02-18T06:14:39.894Z,5.03
2018-02-18T06:15:20.464Z,5.12
2018-02-18T06:16:01.003Z,5.07
2018-02-18T06:16:41.562Z,4.97
2018-02-18T06:17:22.114Z,4.99
2018-02-18T06:18:02.657Z,5.03
2018-02-18T06:18:43.200Z,4.97
2018-02-18T06:19:23.784Z,4.86
2018-02-18T06:20:04.352Z,4.94
2018-02-18T06:20:44.925Z,4.92
2018-02-18T06:21:25.415Z,5.02
2018-02-18T06:22:05.978Z,4.8
2018-02-18T06:22:46.536Z,4.77
2018-02-18T06:23:27.081Z,4.8
2018-02-18T06:24:07.653Z,4.8
2018-02-18T06:24:48.211Z,4.84
2018-02-18T06:25:28.776Z,4.92
2018-02-18T06:26:09.332Z,4.94
2018-02-18T06:26:49.889Z,4.8
2018-02-18T06:27:30.448Z,4.77
2018-02-18T06:28:11.014Z,4.73
2018-02-18T06:28:51.573Z,4.75
2018-02-18T06:29:32.132Z,4.8
2018-02-18T06:30:12.676Z,4.77
2018-02-18T06:30:53.238Z,4.78
2018-02-18T06:31:33.788Z,4.8
2018-02-18T06:32:14.365Z,4.67
2018-02-18T06:32:54.930Z,4.73
2018-02-18T06:33:35.482Z,4.69
2018-02-18T06:34:16.051Z,4.75
2018-02-18T06:34:56.606Z,4.73
2018-02-18T06:35:37.138Z,4.89
2018-02-18T06:36:17.711Z,4.97
2018-02-18T06:36:58.281Z,4.97
2018-02-18T06:37:38.835Z,4.73
2018-02-18T06:38:19.392Z,4.58
2018-02-18T06:38:59.943Z,4.77
2018-02-18T06:39:40.496Z,4.66
2018-02-18T06:40:21.050Z,4.66
2018-02-18T06:41:01.600Z,4.6
2018-02-18T06:41:42.161Z,4.6
2018-02-18T06:42:22.719Z,4.59
2018-02-18T06:43:03.282Z,4.6
2018-02-18T06:43:43.849Z,4.58
2018-02-18T06:44:24.394Z,4.67
2018-02-18T06:45:04.985Z,4.62
2018-02-18T06:45:45.547Z,4.69
2018-02-18T06:46:26.090Z,4.67
2018-02-18T06:47:06.656Z,4.75
2018-02-18T06:47:47.229Z,4.75
2018-02-18T06:48:27.781Z,4.77
2018-02-18T06:49:08.337Z,4.69
2018-02-18T06:49:48.953Z,4.6
2018-02-18T06:50:29.455Z,4.6
2018-02-18T06:51:10.022Z,4.66
2018-02-18T06:51:50.585Z,4.62
2018-02-18T06:52:31.147Z,4.51
2018-02-18T06:53:11.705Z,4.62
2018-02-18T06:53:52.257Z,4.63
2018-02-18T06:54:32.812Z,4.67
2018-02-18T06:55:13.367Z,4.73
2018-02-18T06:55:53.934Z,4.66
2018-02-18T06:56:34.486Z,4.63
2018-02-18T06:57:15.046Z,4.72
2018-02-18T06:57:55.621Z,4.72
2018-02-18T06:58:36.180Z,4.65
2018-02-18T06:59:16.746Z,4.63
2018-02-18T06:59:57.300Z,4.67
2018-02-18T07:00:37.879Z,4.73
2018-02-18T07:01:18.441Z,4.75
2018-02-18T07:01:59.008Z,4.85
2018-02-18T07:02:39.577Z,5.04
2018-02-18T07:03:20.134Z,4.99
2018-02-18T07:04:00.733Z,4.94
2018-02-18T07:04:41.262Z,4.97
2018-02-18T07:05:21.811Z,5.02
2018-02-18T07:06:02.358Z,5.03
2018-02-18T07:06:42.927Z,4.92
2018-02-18T07:07:23.486Z,4.89
2018-02-18T07:08:04.027Z,4.65
2018-02-18T07:08:44.596Z,4.62
2018-02-18T07:09:25.133Z,4.63
2018-02-18T07:10:05.684Z,4.67
2018-02-18T07:10:46.244Z,4.6
2018-02-18T07:11:26.838Z,4.54
2018-02-18T07:12:07.394Z,4.47
2018-02-18T07:12:47.946Z,4.59
2018-02-18T07:13:28.524Z,4.67
2018-02-18T07:14:09.079Z,4.69
2018-02-18T07:14:49.636Z,4.65
2018-02-18T07:15:30.192Z,4.72
2018-02-18T07:16:10.750Z,4.63
2018-02-18T07:16:51.329Z,4.66
2018-02-18T07:17:31.881Z,4.48
2018-02-18T07:18:12.428Z,4.6
2018-02-18T07:18:52.980Z,4.45
2018-02-18T07:19:33.539Z,4.41
2018-02-18T07:20:14.103Z,4.15
2018-02-18T07:20:54.666Z,4.23
2018-02-18T07:21:35.237Z,4.22
2018-02-18T07:22:15.792Z,4.36
2018-02-18T07:22:56.345Z,4.48
2018-02-18T07:23:36.881Z,4.48
2018-02-18T07:24:17.437Z,4.62
2018-02-18T07:24:57.992Z,4.77
2018-02-18T07:25:38.541Z,4.5
2018-02-18T07:26:19.076Z,4.52
2018-02-18T07:26:59.643Z,4.62
2018-02-18T07:27:40.187Z,4.63
2018-02-18T07:28:20.737Z,4.58
2018-02-18T07:29:01.302Z,4.51
2018-02-18T07:29:41.874Z,4.62
2018-02-18T07:30:22.460Z,4.36
2018-02-18T07:31:03.011Z,4.34
2018-02-18T07:31:43.563Z,4.48
2018-02-18T07:32:24.121Z,4.52
2018-02-18T07:33:04.673Z,4.58
2018-02-18T07:33:45.228Z,4.72
2018-02-18T07:34:25.792Z,4.85
2018-02-18T07:35:06.354Z,4.77
2018-02-18T07:35:46.906Z,4.8
2018-02-18T07:36:27.485Z,4.77
2018-02-18T07:37:08.026Z,4.78
2018-02-18T07:37:48.582Z,4.67
2018-02-18T07:38:29.359Z,4.6
2018-02-18T07:39:09.710Z,4.5
2018-02-18T07:39:50.272Z,4.52
2018-02-18T07:40:30.831Z,4.47
2018-02-18T07:41:11.400Z,4.66
2018-02-18T07:41:51.962Z,4.4
2018-02-18T07:42:32.547Z,4.54
2018-02-18T07:43:13.100Z,4.55
2018-02-18T07:43:53.810Z,4.7
2018-02-18T07:44:34.373Z,4.72
2018-02-18T07:45:14.928Z,4.63
2018-02-18T07:45:55.478Z,4.66
2018-02-18T07:46:36.038Z,4.77
2018-02-18T07:47:16.605Z,4.92
2018-02-18T07:47:57.154Z,4.84
2018-02-18T07:48:37.714Z,4.63
2018-02-18T07:49:18.261Z,4.66
2018-02-18T07:49:58.822Z,4.8
2018-02-18T07:50:39.389Z,4.94
2018-02-18T07:51:19.945Z,4.99
2018-02-18T07:52:00.541Z,5.02
2018-02-18T07:52:41.099Z,5.07
2018-02-18T07:53:21.668Z,5.15
2018-02-18T07:54:02.213Z,5.27
2018-02-18T07:54:42.780Z,5.3
2018-02-18T07:55:23.320Z,5.24
2018-02-18T07:56:03.933Z,5.3
2018-02-18T07:56:44.514Z,5.25
2018-02-18T07:57:25.068Z,5.38
2018-02-18T07:58:05.594Z,5.43
2018-02-18T07:58:46.144Z,5.53
2018-02-18T07:59:26.704Z,5.6
2018-02-18T08:00:07.262Z,5.65
2018-02-18T08:00:47.837Z,5.68
2018-02-18T08:01:28.389Z,5.67
2018-02-18T08:02:08.947Z,5.54
2018-02-18T08:02:49.509Z,5.49
2018-02-18T08:03:30.064Z,5.54
2018-02-18T08:04:10.615Z,5.4
2018-02-18T08:04:51.254Z,5.45
2018-02-18T08:05:31.809Z,5.48
2018-02-18T08:06:12.491Z,5.45
2018-02-18T08:06:53.039Z,5.46
2018-02-18T08:07:33.612Z,5.39
2018-02-18T08:08:14.176Z,5.51
2018-02-18T08:08:54.759Z,5.4
2018-02-18T08:09:35.355Z,5.4
2018-02-18T08:10:15.954Z,5.4
2018-02-18T08:10:56.574Z,5.38
2018-02-18T08:11:37.232Z,5.38
2018-02-18T08:12:17.793Z,5.39
2018-02-18T08:12:58.334Z,5.43
2018-02-18T08:13:39.075Z,5.39
2018-02-18T08:14:19.672Z,5.27
2018-02-18T08:15:00.250Z,5.28
2018-02-18T08:15:40.812Z,5.22
2018-02-18T08:16:21.360Z,5.36
2018-02-18T08:17:01.923Z,5.24
2018-02-18T08:17:42.468Z,5.28
2018-02-18T08:18:23.097Z,5.28
2018-02-18T08:19:03.661Z,5.24
2018-02-18T08:19:44.238Z,5.3
2018-02-18T08:20:24.800Z,5.31
2018-02-18T08:21:05.365Z,5.27
2018-02-18T08:21:45.950Z,5.22
2018-02-18T08:22:26.502Z,5.24
2018-02-18T08:23:07.060Z,5.15
2018-02-18T08:23:47.627Z,5.28
2018-02-18T08:24:28.182Z,5.17
2018-02-18T08:25:08.744Z,5.18
2018-02-18T08:25:49.341Z,5.25
2018-02-18T08:26:29.940Z,5.21
2018-02-18T08:27:15.886Z,5.33
2018-02-18T08:27:56.434Z,5.39
2018-02-18T08:28:36.999Z,5.35
2018-02-18T08:29:17.555Z,5.31
2018-02-18T08:29:58.107Z,5.33
2018-02-18T08:30:38.661Z,5.33
2018-02-18T08:31:19.217Z,5.38
2018-02-18T08:31:59.783Z,5.27
2018-02-18T08:32:40.342Z,5.39
2018-02-18T08:33:20.897Z,5.24
2018-02-18T08:34:01.442Z,5.31
2018-02-18T08:34:42.001Z,5.18
2018-02-18T08:35:22.574Z,5.15
2018-02-18T08:36:03.135Z,5.22
2018-02-18T08:36:43.692Z,5.27
2018-02-18T08:37:24.266Z,5.21
2018-02-18T08:38:04.830Z,5.25
2018-02-18T08:38:45.404Z,5.33
2018-02-18T08:39:25.984Z,5.33
2018-02-18T08:40:06.538Z,5.3
2018-02-18T08:40:47.102Z,5.35
2018-02-18T08:41:27.693Z,5.36
2018-02-18T08:42:08.301Z,5.31
2018-02-18T08:42:48.843Z,5.25
2018-02-18T08:43:29.645Z,5.39
2018-02-18T08:44:10.264Z,5.31
2018-02-18T08:44:50.837Z,5.27
2018-02-18T08:45:31.383Z,5.24
2018-02-18T08:46:11.965Z,5.3
2018-02-18T08:46:52.497Z,5.4
2018-02-18T08:47:33.092Z,5.46
2018-02-18T08:48:13.680Z,5.46
2018-02-18T08:48:54.224Z,5.51
2018-02-18T08:49:34.790Z,5.57
2018-02-18T08:50:15.379Z,5.45
2018-02-18T08:50:55.917Z,5.46
2018-02-18T08:51:36.482Z,5.46
2018-02-18T08:52:17.047Z,5.43
2018-02-18T08:52:57.656Z,5.43
2018-02-18T08:53:38.212Z,5.4
2018-02-18T08:54:18.780Z,5.46
2018-02-18T08:54:59.342Z,5.53
2018-02-18T08:55:39.902Z,5.58
2018-02-18T08:56:20.466Z,5.53
2018-02-18T08:57:01.025Z,5.65
2018-02-18T08:57:41.580Z,5.56
2018-02-18T08:58:22.133Z,5.57
2018-02-18T08:59:02.696Z,5.61
2018-02-18T08:59:43.256Z,5.45
2018-02-18T09:00:23.823Z,5.39
2018-02-18T09:01:04.379Z,5.31
2018-02-18T09:01:44.940Z,5.35
2018-02-18T09:02:25.495Z,5.3
2018-02-18T09:03:06.095Z,5.28
2018-02-18T09:03:46.698Z,5.33